Autryville, North Carolina
Current Conditions -  °F | °C
As of 10:53 PM on Tuesday 21 Oct 2014 (Local Time) from KFAY Reporting Station
Broken Clouds Broken Clouds  
Wind Chill: 18°   Ceiling: 9500
Heat Index: 18°   Visibility: 10mi
Dew Point:   Wind: 9mph
Humidity: 50%   Direction: 340°NNW
Pressure: 29.92"   Gusts: NA
Location:  35°N, 78.64°W
Report Text: KFAY 220253Z 34008KT 10SM FEW070 BKN095 18/07 A2992 RMK AO2 SLP126 T01780072 51018
Loading
Personal Weather Stations






























Interactive Weather Map
Tropical Storm Tracking
New forecast layout! Learn more

10-Day Weather Forecast

Advertisements
Track Severe Weather on mobile